Time,TemperatureF,DewpointF,PressureIn,WindDirection,WindDirectionDegrees,WindSpeedMPH,WindSpeedGustMPH,Humidity,HourlyPrecipIn,Conditions,Clouds,dailyrainin,SoftwareType,DateUTC
2013-02-01 00:03:00,15.0,15.0,-100.00,WSW,248,3.0,8.0,100,0.00,,,0.00,,2013-02-01 05:03:00,
2013-02-01 00:12:00,15.0,15.0,-100.00,WSW,248,3.0,8.0,100,0.00,,,0.00,,2013-02-01 05:12:00,
2013-02-01 00:22:00,15.0,15.0,-100.00,West,270,5.0,9.0,100,0.00,,,0.00,,2013-02-01 05:22:00,
2013-02-01 00:32:00,15.0,15.0,-100.00,West,270,8.0,14.0,100,0.00,,,0.00,,2013-02-01 05:32:00,
2013-02-01 00:42:00,15.0,15.0,-100.00,West,270,8.0,14.0,100,0.00,,,0.00,,2013-02-01 05:42:00,
2013-02-01 00:52:00,14.0,14.0,-100.00,WSW,248,6.0,9.0,100,0.00,,,0.00,,2013-02-01 05:52:00,
2013-02-01 01:02:00,14.0,14.0,-100.00,West,270,6.0,9.0,100,0.00,,,0.00,,2013-02-01 06:02:00,
2013-02-01 01:11:00,14.0,14.0,-100.00,West,270,6.0,9.0,99,0.00,,,0.00,,2013-02-01 06:11:00,
2013-02-01 01:22:00,14.0,14.0,-100.00,West,270,6.0,9.0,99,0.00,,,0.00,,2013-02-01 06:22:00,
2013-02-01 01:32:00,14.0,14.0,-100.00,West,270,5.0,8.0,99,0.00,,,0.00,,2013-02-01 06:32:00,
2013-02-01 01:42:00,14.0,14.0,-100.00,West,270,5.0,8.0,99,0.00,,,0.00,,2013-02-01 06:42:00,
2013-02-01 01:52:00,15.0,15.0,-100.00,West,270,9.0,14.0,100,0.00,,,0.00,,2013-02-01 06:52:00,
2013-02-01 02:02:00,14.0,14.0,-100.00,WNW,293,8.0,9.0,99,0.00,,,0.00,,2013-02-01 07:02:00,
2013-02-01 02:12:00,14.0,14.0,-100.00,WNW,293,9.0,13.0,99,0.00,,,0.00,,2013-02-01 07:12:00,
2013-02-01 02:22:00,14.0,14.0,-100.00,WNW,293,9.0,13.0,99,0.00,,,0.00,,2013-02-01 07:22:00,
2013-02-01 02:32:00,14.0,14.0,-100.00,WNW,293,3.0,5.0,99,0.00,,,0.00,,2013-02-01 07:32:00,
2013-02-01 02:42:00,14.0,14.0,-100.00,WNW,293,3.0,5.0,99,0.00,,,0.00,,2013-02-01 07:42:00,
2013-02-01 02:52:00,14.0,14.0,-100.00,WNW,293,3.0,9.0,99,0.00,,,0.00,,2013-02-01 07:52:00,
2013-02-01 03:01:00,15.0,15.0,-100.00,West,270,0.0,0.0,99,0.00,,,0.00,,2013-02-01 08:01:00,
2013-02-01 03:11:00,15.0,15.0,-100.00,West,270,0.0,0.0,99,0.00,,,0.00,,2013-02-01 08:11:00,
2013-02-01 03:21:00,14.0,14.0,-100.00,WSW,248,8.0,10.0,99,0.00,,,0.00,,2013-02-01 08:21:00,
2013-02-01 03:32:00,14.0,14.0,-100.00,West,270,0.0,0.0,98,0.00,,,0.00,,2013-02-01 08:32:00,
2013-02-01 03:42:00,14.0,14.0,-100.00,West,270,0.0,0.0,98,0.00,,,0.00,,2013-02-01 08:42:00,
2013-02-01 03:52:00,14.0,14.0,-100.00,WSW,248,8.0,12.0,98,0.00,,,0.00,,2013-02-01 08:52:00,
2013-02-01 04:01:00,14.0,14.0,-100.00,West,270,5.0,7.0,98,0.00,,,0.00,,2013-02-01 09:01:00,
2013-02-01 04:11:00,14.0,14.0,-100.00,West,270,5.0,7.0,98,0.00,,,0.00,,2013-02-01 09:11:00,
2013-02-01 04:21:00,14.0,14.0,-100.00,WSW,248,5.0,9.0,98,0.00,,,0.00,,2013-02-01 09:21:00,
2013-02-01 04:32:00,13.0,13.0,-100.00,SSW,203,2.0,7.0,99,0.00,,,0.00,,2013-02-01 09:32:00,
2013-02-01 04:42:00,13.0,13.0,-100.00,SSW,203,2.0,7.0,99,0.00,,,0.00,,2013-02-01 09:42:00,
2013-02-01 04:51:00,13.0,13.0,-100.00,West,270,2.0,7.0,99,0.00,,,0.00,,2013-02-01 09:51:00,
2013-02-01 05:01:00,13.0,13.0,-100.00,WSW,248,8.0,12.0,98,0.00,,,0.00,,2013-02-01 10:01:00,
2013-02-01 05:11:00,13.0,13.0,-100.00,WSW,248,8.0,12.0,98,0.00,,,0.00,,2013-02-01 10:11:00,
2013-02-01 05:21:00,14.0,13.0,-100.00,WSW,248,7.0,9.0,97,0.00,,,0.00,,2013-02-01 10:21:00,
2013-02-01 05:32:00,13.0,12.0,-100.00,West,270,1.0,7.0,97,0.00,,,0.00,,2013-02-01 10:32:00,
2013-02-01 05:42:00,13.0,13.0,-100.00,West,270,8.0,10.0,98,0.00,,,0.00,,2013-02-01 10:42:00,
2013-02-01 05:52:00,13.0,13.0,-100.00,West,270,8.0,10.0,98,0.00,,,0.00,,2013-02-01 10:52:00,
2013-02-01 06:02:00,13.0,12.0,-100.00,West,270,8.0,12.0,97,0.00,,,0.00,,2013-02-01 11:02:00,
2013-02-01 06:11:00,13.0,12.0,-100.00,West,270,8.0,12.0,97,0.00,,,0.00,,2013-02-01 11:11:00,
2013-02-01 06:22:00,13.0,12.0,-100.00,WSW,248,2.0,7.0,96,0.00,,,0.00,,2013-02-01 11:22:00,
2013-02-01 06:32:00,13.0,12.0,-100.00,West,270,7.0,10.0,96,0.00,,,0.00,,2013-02-01 11:32:00,
2013-02-01 06:42:00,13.0,12.0,-100.00,West,270,7.0,10.0,96,0.00,,,0.00,,2013-02-01 11:42:00,
2013-02-01 06:53:00,14.0,13.0,-100.00,West,270,7.0,9.0,96,0.00,,,0.00,,2013-02-01 11:53:00,
2013-02-01 07:02:00,13.0,12.0,-100.00,West,270,6.0,7.0,96,0.00,,,0.00,,2013-02-01 12:02:00,
2013-02-01 07:12:00,13.0,12.0,-100.00,West,270,6.0,7.0,96,0.00,,,0.00,,2013-02-01 12:12:00,
2013-02-01 07:22:00,14.0,13.0,-100.00,West,270,6.0,8.0,96,0.00,,,0.00,,2013-02-01 12:22:00,
2013-02-01 07:32:00,14.0,13.0,-100.00,SW,225,5.0,9.0,95,0.00,,,0.00,,2013-02-01 12:32:00,
2013-02-01 07:42:00,14.0,13.0,-100.00,SW,225,5.0,9.0,95,0.00,,,0.00,,2013-02-01 12:42:00,
2013-02-01 07:52:00,14.0,13.0,-100.00,West,270,6.0,9.0,94,0.00,,,0.00,,2013-02-01 12:52:00,
2013-02-01 08:02:00,13.0,12.0,-100.00,West,270,7.0,12.0,94,0.00,,,0.00,,2013-02-01 13:02:00,
2013-02-01 08:11:00,13.0,12.0,-100.00,West,270,7.0,12.0,94,0.00,,,0.00,,2013-02-01 13:11:00,
2013-02-01 08:22:00,13.0,12.0,-100.00,West,270,8.0,13.0,94,0.00,,,0.00,,2013-02-01 13:22:00,
2013-02-01 08:33:00,14.0,13.0,-100.00,West,270,6.0,9.0,94,0.00,,,0.00,,2013-02-01 13:33:00,
2013-02-01 08:42:00,14.0,13.0,-100.00,West,270,6.0,9.0,94,0.00,,,0.00,,2013-02-01 13:42:00,
2013-02-01 08:53:00,13.0,12.0,-100.00,WSW,248,7.0,10.0,94,0.00,,,0.00,,2013-02-01 13:53:00,
2013-02-01 09:03:00,14.0,12.0,-100.00,West,270,9.0,14.0,93,0.00,,,0.00,,2013-02-01 14:03:00,
2013-02-01 09:11:00,14.0,12.0,-100.00,West,270,7.0,13.0,92,0.00,,,0.00,,2013-02-01 14:11:00,
2013-02-01 09:22:00,14.0,12.0,-100.00,West,270,7.0,13.0,92,0.00,,,0.00,,2013-02-01 14:22:00,
2013-02-01 09:32:00,15.0,13.0,-100.00,SW,225,7.0,10.0,92,0.00,,,0.00,,2013-02-01 14:32:00,
2013-02-01 09:42:00,15.0,14.0,-100.00,WSW,248,6.0,14.0,94,0.00,,,0.00,,2013-02-01 14:42:00,
2013-02-01 09:53:00,15.0,14.0,-100.00,WSW,248,6.0,14.0,94,0.00,,,0.00,,2013-02-01 14:53:00,
2013-02-01 10:02:00,16.0,15.0,-100.00,West,270,12.0,16.0,94,0.00,,,0.00,,2013-02-01 15:02:00,
2013-02-01 10:12:00,16.0,14.0,-100.00,West,270,13.0,17.0,92,0.00,,,0.00,,2013-02-01 15:12:00,
2013-02-01 10:22:00,16.0,14.0,-100.00,West,270,13.0,17.0,92,0.00,,,0.00,,2013-02-01 15:22:00,
2013-02-01 10:33:00,16.0,14.0,-100.00,West,270,12.0,16.0,91,0.00,,,0.00,,2013-02-01 15:33:00,
2013-02-01 10:42:00,16.0,14.0,-100.00,West,270,12.0,16.0,91,0.00,,,0.00,,2013-02-01 15:42:00,
2013-02-01 10:52:00,16.0,14.0,-100.00,West,270,9.0,14.0,90,0.00,,,0.00,,2013-02-01 15:52:00,
2013-02-01 11:03:00,16.0,13.0,-100.00,West,270,8.0,9.0,88,0.00,,,0.00,,2013-02-01 16:03:00,
2013-02-01 11:11:00,17.0,14.0,-100.00,West,270,7.0,20.0,86,0.00,,,0.00,,2013-02-01 16:11:00,
2013-02-01 11:22:00,17.0,14.0,-100.00,West,270,7.0,20.0,86,0.00,,,0.00,,2013-02-01 16:22:00,
2013-02-01 11:33:00,16.0,12.0,-100.00,West,270,7.0,14.0,83,0.00,,,0.00,,2013-02-01 16:33:00,
2013-02-01 11:43:00,16.0,11.0,-100.00,West,270,13.0,17.0,82,0.00,,,0.00,,2013-02-01 16:43:00,
2013-02-01 11:52:00,16.0,11.0,-100.00,West,270,13.0,17.0,82,0.00,,,0.00,,2013-02-01 16:52:00,
2013-02-01 12:02:00,16.0,11.0,-100.00,West,270,7.0,13.0,82,0.00,,,0.00,,2013-02-01 17:02:00,
2013-02-01 12:12:00,16.0,12.0,-100.00,WSW,248,8.0,8.0,84,0.00,,,0.00,,2013-02-01 17:12:00,
2013-02-01 12:22:00,16.0,12.0,-100.00,WSW,248,8.0,8.0,84,0.00,,,0.00,,2013-02-01 17:22:00,
2013-02-01 12:32:00,16.0,12.0,-100.00,WSW,248,9.0,15.0,84,0.00,,,0.00,,2013-02-01 17:32:00,
2013-02-01 12:42:00,16.0,12.0,-100.00,WSW,248,9.0,15.0,84,0.00,,,0.00,,2013-02-01 17:42:00,
2013-02-01 12:53:00,16.0,11.0,-100.00,West,270,12.0,18.0,82,0.00,,,0.00,,2013-02-01 17:53:00,
2013-02-01 13:03:00,17.0,12.0,-100.00,WSW,248,13.0,16.0,81,0.00,,,0.00,,2013-02-01 18:03:00,
2013-02-01 13:12:00,17.0,12.0,-100.00,WSW,248,13.0,16.0,81,0.00,,,0.00,,2013-02-01 18:12:00,
2013-02-01 13:22:00,16.0,11.0,-100.00,West,270,10.0,14.0,82,0.00,,,0.00,,2013-02-01 18:22:00,
2013-02-01 13:32:00,17.0,11.0,-100.00,West,270,10.0,15.0,78,0.00,,,0.00,,2013-02-01 18:32:00,
2013-02-01 13:42:00,17.0,11.0,-100.00,West,270,10.0,15.0,78,0.00,,,0.00,,2013-02-01 18:42:00,
2013-02-01 13:52:00,17.0,11.0,-100.00,West,270,13.0,15.0,76,0.00,,,0.00,,2013-02-01 18:52:00,
2013-02-01 14:03:00,17.0,11.0,-100.00,WSW,248,9.0,14.0,77,0.00,,,0.00,,2013-02-01 19:03:00,
2013-02-01 14:12:00,17.0,11.0,-100.00,WSW,248,9.0,14.0,77,0.00,,,0.00,,2013-02-01 19:12:00,
2013-02-01 14:21:00,17.0,11.0,-100.00,WSW,248,10.0,15.0,78,0.00,,,0.00,,2013-02-01 19:21:00,
2013-02-01 14:32:00,17.0,12.0,-100.00,West,270,6.0,10.0,79,0.00,,,0.00,,2013-02-01 19:32:00,
2013-02-01 14:42:00,17.0,12.0,-100.00,West,270,6.0,10.0,79,0.00,,,0.00,,2013-02-01 19:42:00,
2013-02-01 14:52:00,17.0,12.0,-100.00,SW,225,3.0,5.0,81,0.00,,,0.00,,2013-02-01 19:52:00,
2013-02-01 15:02:00,17.0,12.0,-100.00,SW,225,6.0,7.0,81,0.00,,,0.00,,2013-02-01 20:02:00,
2013-02-01 15:11:00,17.0,13.0,-100.00,West,270,8.0,15.0,83,0.00,,,0.00,,2013-02-01 20:11:00,
2013-02-01 15:21:00,17.0,13.0,-100.00,West,270,8.0,15.0,83,0.00,,,0.00,,2013-02-01 20:21:00,
2013-02-01 15:32:00,16.0,12.0,-100.00,WSW,248,10.0,18.0,85,0.00,,,0.00,,2013-02-01 20:32:00,
2013-02-01 15:42:00,16.0,12.0,-100.00,WSW,248,12.0,16.0,84,0.00,,,0.00,,2013-02-01 20:42:00,
2013-02-01 15:52:00,16.0,12.0,-100.00,WSW,248,12.0,16.0,84,0.00,,,0.00,,2013-02-01 20:52:00,
2013-02-01 16:02:00,16.0,11.0,-100.00,SW,225,9.0,15.0,81,0.00,,,0.00,,2013-02-01 21:02:00,
2013-02-01 16:12:00,16.0,11.0,-100.00,SW,225,9.0,15.0,81,0.00,,,0.00,,2013-02-01 21:12:00,
2013-02-01 16:22:00,16.0,12.0,-100.00,WSW,248,3.0,10.0,83,0.00,,,0.00,,2013-02-01 21:22:00,
2013-02-01 16:32:00,16.0,12.0,-100.00,SW,225,8.0,12.0,85,0.00,,,0.00,,2013-02-01 21:32:00,
2013-02-01 16:42:00,16.0,12.0,-100.00,SW,225,8.0,12.0,85,0.00,,,0.00,,2013-02-01 21:42:00,
2013-02-01 16:52:00,16.0,13.0,-100.00,WSW,248,8.0,13.0,86,0.00,,,0.00,,2013-02-01 21:52:00,
2013-02-01 17:02:00,16.0,11.0,-100.00,SW,225,8.0,15.0,82,0.00,,,0.00,,2013-02-01 22:02:00,
2013-02-01 17:11:00,16.0,11.0,-100.00,SW,225,5.0,5.0,81,0.00,,,0.00,,2013-02-01 22:11:00,
2013-02-01 17:21:00,16.0,11.0,-100.00,SW,225,5.0,5.0,81,0.00,,,0.00,,2013-02-01 22:21:00,
2013-02-01 17:32:00,16.0,11.0,-100.00,SSW,203,6.0,7.0,81,0.00,,,0.00,,2013-02-01 22:32:00,
2013-02-01 17:42:00,16.0,11.0,-100.00,SSW,203,6.0,7.0,81,0.00,,,0.00,,2013-02-01 22:42:00,
2013-02-01 17:52:00,15.0,12.0,-100.00,WSW,248,12.0,18.0,89,0.00,,,0.00,,2013-02-01 22:52:00,
2013-02-01 18:01:00,15.0,13.0,-100.00,SW,225,8.0,16.0,90,0.00,,,0.00,,2013-02-01 23:01:00,
2013-02-01 18:11:00,15.0,12.0,-100.00,SW,225,10.0,13.0,89,0.00,,,0.00,,2013-02-01 23:11:00,
2013-02-01 18:21:00,15.0,12.0,-100.00,SW,225,10.0,13.0,89,0.00,,,0.00,,2013-02-01 23:21:00,
2013-02-01 18:32:00,14.0,11.0,-100.00,WSW,248,12.0,16.0,86,0.00,,,0.00,,2013-02-01 23:32:00,
2013-02-01 18:42:00,14.0,11.0,-100.00,WSW,248,12.0,16.0,86,0.00,,,0.00,,2013-02-01 23:42:00,
2013-02-01 18:52:00,14.0,11.0,-100.00,SSW,203,9.0,14.0,87,0.00,,,0.00,,2013-02-01 23:52:00,
2013-02-01 19:02:00,13.0,9.0,-100.00,SW,225,7.0,13.0,85,0.00,,,0.00,,2013-02-02 00:02:00,
2013-02-01 19:11:00,13.0,9.0,-100.00,SW,225,7.0,13.0,85,0.00,,,0.00,,2013-02-02 00:11:00,
2013-02-01 19:21:00,13.0,9.0,-100.00,SW,225,10.0,16.0,83,0.00,,,0.00,,2013-02-02 00:21:00,
2013-02-01 19:32:00,13.0,9.0,-100.00,SW,225,9.0,10.0,83,0.00,,,0.00,,2013-02-02 00:32:00,
2013-02-01 19:42:00,13.0,9.0,-100.00,SW,225,9.0,10.0,83,0.00,,,0.00,,2013-02-02 00:42:00,
2013-02-01 19:52:00,12.0,8.0,-100.00,SW,225,8.0,12.0,83,0.00,,,0.00,,2013-02-02 00:52:00,
2013-02-01 20:02:00,12.0,9.0,-100.00,SW,225,9.0,15.0,86,0.00,,,0.00,,2013-02-02 01:02:00,
2013-02-01 20:11:00,12.0,9.0,-100.00,SW,225,9.0,15.0,86,0.00,,,0.00,,2013-02-02 01:11:00,
2013-02-01 20:21:00,12.0,9.0,-100.00,SW,225,10.0,14.0,87,0.00,,,0.00,,2013-02-02 01:21:00,
2013-02-01 20:32:00,11.0,8.0,-100.00,SSW,203,10.0,13.0,87,0.00,,,0.00,,2013-02-02 01:32:00,
2013-02-01 20:42:00,11.0,8.0,-100.00,SSW,203,10.0,13.0,87,0.00,,,0.00,,2013-02-02 01:42:00,
2013-02-01 20:52:00,11.0,8.0,-100.00,SW,225,12.0,17.0,86,0.00,,,0.00,,2013-02-02 01:52:00,
2013-02-01 21:01:00,10.0,7.0,-100.00,SSW,203,9.0,12.0,86,0.00,,,0.00,,2013-02-02 02:01:00,
2013-02-01 21:11:00,10.0,7.0,-100.00,SSW,203,9.0,12.0,86,0.00,,,0.00,,2013-02-02 02:11:00,
2013-02-01 21:21:00,10.0,7.0,-100.00,SSW,203,7.0,14.0,86,0.00,,,0.00,,2013-02-02 02:21:00,
2013-02-01 21:32:00,10.0,7.0,-100.00,SSW,203,9.0,18.0,86,0.00,,,0.00,,2013-02-02 02:32:00,
2013-02-01 21:42:00,10.0,7.0,-100.00,SSW,203,9.0,18.0,86,0.00,,,0.00,,2013-02-02 02:42:00,
2013-02-01 21:52:00,9.0,6.0,-100.00,SW,225,7.0,12.0,86,0.00,,,0.00,,2013-02-02 02:52:00,
2013-02-01 22:02:00,9.0,6.0,-100.00,South,180,9.0,13.0,86,0.00,,,0.00,,2013-02-02 03:02:00,
2013-02-01 22:11:00,9.0,6.0,-100.00,South,180,7.0,9.0,87,0.00,,,0.00,,2013-02-02 03:11:00,
2013-02-01 22:22:00,9.0,6.0,-100.00,South,180,7.0,9.0,87,0.00,,,0.00,,2013-02-02 03:22:00,
2013-02-01 22:32:00,10.0,7.0,-100.00,SW,225,8.0,10.0,87,0.00,,,0.00,,2013-02-02 03:32:00,
2013-02-01 22:42:00,10.0,7.0,-100.00,SSW,203,8.0,13.0,87,0.00,,,0.00,,2013-02-02 03:42:00,
2013-02-01 22:52:00,10.0,7.0,-100.00,SSW,203,8.0,13.0,87,0.00,,,0.00,,2013-02-02 03:52:00,
2013-02-01 23:02:00,10.0,7.0,-100.00,SSW,203,7.0,9.0,88,0.00,,,0.00,,2013-02-02 04:02:00,
2013-02-01 23:11:00,10.0,7.0,-100.00,SSW,203,7.0,9.0,88,0.00,,,0.00,,2013-02-02 04:11:00,
2013-02-01 23:22:00,11.0,8.0,-100.00,SSW,203,10.0,15.0,88,0.00,,,0.00,,2013-02-02 04:22:00,
2013-02-01 23:32:00,11.0,8.0,-100.00,South,180,9.0,16.0,87,0.00,,,0.00,,2013-02-02 04:32:00,
2013-02-01 23:42:00,11.0,8.0,-100.00,South,180,9.0,16.0,87,0.00,,,0.00,,2013-02-02 04:42:00,
2013-02-01 23:51:00,11.0,8.0,-100.00,SSW,203,6.0,13.0,87,0.00,,,0.00,,2013-02-02 04:51:00,